Portada
METAR-TAF:

METAR-TAF

Aeroports :

Koumac, Nova Caledònia

latitud: 20-34S, longitud: 164-17E, altitud: 23 m

METAR: manca

Hora: 14:33 (03:33 UTC)

Pronòstic

L'informe es va fer fa 23 minuts, a les 03:10 UTC
Pronòstic vàlid del 06 a les 03 UTC al 06 a les 24 UTC
Vent 8 kt del Oest/Sud-Oest
Visibilitat 10 km o més
Núvols disperses a una alçada de 2000 ft
Núvols disperses a una alçada de 12000 ft
Temporalment
l' 06 a les 03 UTC al 06 a les 09 UTC
Visibilitat: 2000 m
Cel ennuvolat a una alçada de 1400 ft
Escasses núvols a una alçada de 1800 ft, Cumulonimbus.
xàfecs de pluja

TAF: NWWK 060310Z 0603/0624 25008KT 9999 SCT020 SCT120 TEMPO 0603/0609 2000 SHRA BKN014 FEW018CB

Observacions i pronòstics meteorològics de més de 4000 aeroports (METAR i TAF).

Les estacions disponibles són els punts grocs i vermells al mapa.

Posi el ratolí al punt desitjat per veure el nom de l'estació.

Feu clic per veure les observacions i els pronòstics meteorològics.

Per canviar el mapa: feu clic els botons verds amb una creu de color negre per apropar; al botó verd amb un guió per allunyar la imatge; o en les fletxes verdes per a mapes adjacents.


METAR-TAF: